createdAt,value
2018-08-04T00:03:25.612Z,24.98
2018-08-04T00:08:22.799Z,24.77
2018-08-04T00:13:19.400Z,24.80
2018-08-04T00:18:16.032Z,24.76
2018-08-04T00:23:11.691Z,24.70
2018-08-04T00:28:08.664Z,24.63
2018-08-04T00:33:05.145Z,24.47
2018-08-04T00:38:00.770Z,24.30
2018-08-04T00:42:56.529Z,24.08
2018-08-04T00:47:52.301Z,23.99
2018-08-04T00:52:48.918Z,24.05
2018-08-04T00:57:44.754Z,23.91
2018-08-04T01:02:40.789Z,23.73
2018-08-04T01:07:36.434Z,23.71
2018-08-04T01:12:32.615Z,23.86
2018-08-04T01:17:28.755Z,23.92
2018-08-04T01:22:24.618Z,23.86
2018-08-04T01:27:20.649Z,23.84
2018-08-04T01:32:16.641Z,23.62
2018-08-04T01:37:12.475Z,23.58
2018-08-04T01:42:08.413Z,23.55
2018-08-04T01:47:04.413Z,23.44
2018-08-04T01:52:00.329Z,23.27
2018-08-04T01:56:56.087Z,23.10
2018-08-04T02:01:51.916Z,23.23
2018-08-04T02:06:48.141Z,23.31
2018-08-04T02:11:44.203Z,23.25
2018-08-04T02:16:40.397Z,23.10
2018-08-04T02:21:37.326Z,23.17
2018-08-04T02:26:32.988Z,23.00
2018-08-04T02:31:28.691Z,22.98
2018-08-04T02:36:25.814Z,22.87
2018-08-04T02:41:21.202Z,22.73
2018-08-04T02:46:17.028Z,22.83
2018-08-04T02:51:13.493Z,22.73
2018-08-04T02:56:09.685Z,22.72
2018-08-04T03:01:05.678Z,22.55
2018-08-04T03:06:01.465Z,22.54
2018-08-04T03:10:58.813Z,22.55
2018-08-04T03:15:54.663Z,22.59
2018-08-04T03:20:50.644Z,22.53
2018-08-04T03:25:46.952Z,22.41
2018-08-04T03:30:43.728Z,22.36
2018-08-04T03:35:39.477Z,22.39
2018-08-04T03:40:35.388Z,22.51
2018-08-04T03:45:31.479Z,22.35
2018-08-04T03:50:27.403Z,22.26
2018-08-04T03:55:23.159Z,22.28
2018-08-04T04:00:20.191Z,22.25
2018-08-04T04:05:15.880Z,22.36
2018-08-04T04:10:11.530Z,22.41
2018-08-04T04:15:07.469Z,22.43
2018-08-04T04:20:03.639Z,22.43
2018-08-04T04:24:59.991Z,22.53
2018-08-04T04:29:56.103Z,22.50
2018-08-04T04:34:52.125Z,22.51
2018-08-04T04:39:48.116Z,22.35
2018-08-04T04:44:44.029Z,22.35
2018-08-04T04:49:39.799Z,22.45
2018-08-04T04:54:35.750Z,22.43
2018-08-04T04:59:32.938Z,22.44
2018-08-04T05:04:28.674Z,22.50
2018-08-04T05:09:25.081Z,22.57
2018-08-04T05:14:20.948Z,22.43
2018-08-04T05:19:17.855Z,22.15
2018-08-04T05:24:13.673Z,22.30
2018-08-04T05:29:09.456Z,22.36
2018-08-04T05:34:05.542Z,22.62
2018-08-04T05:39:01.607Z,22.68
2018-08-04T05:43:57.694Z,22.81
2018-08-04T05:48:54.024Z,22.90
2018-08-04T05:53:50.939Z,22.66
2018-08-04T05:58:46.465Z,22.69
2018-08-04T06:03:42.982Z,22.76
2018-08-04T06:08:39.500Z,22.91
2018-08-04T06:13:35.418Z,22.98
2018-08-04T06:18:31.704Z,22.70
2018-08-04T06:23:29.032Z,23.13
2018-08-04T06:28:25.108Z,23.00
2018-08-04T06:33:21.208Z,23.23
2018-08-04T06:38:18.355Z,23.44
2018-08-04T06:43:15.193Z,23.41
2018-08-04T06:48:11.404Z,23.56
2018-08-04T06:53:08.335Z,23.66
2018-08-04T06:58:04.169Z,23.80
2018-08-04T07:03:00.156Z,23.98
2018-08-04T07:07:57.102Z,24.14
2018-08-04T07:12:53.644Z,24.26
2018-08-04T07:17:49.305Z,24.51
2018-08-04T07:22:45.364Z,24.39
2018-08-04T07:27:41.336Z,24.69
2018-08-04T07:32:38.158Z,24.86
2018-08-04T07:37:34.179Z,25.03
2018-08-04T07:42:30.310Z,24.96
2018-08-04T07:47:26.286Z,24.84
2018-08-04T07:52:22.294Z,24.92
2018-08-04T07:57:18.758Z,25.06
2018-08-04T08:02:17.163Z,26.26
2018-08-04T08:07:15.787Z,27.87
2018-08-04T08:12:14.145Z,28.84
2018-08-04T08:17:11.851Z,29.57
2018-08-04T08:22:10.187Z,30.27
2018-08-04T08:27:06.948Z,30.03
2018-08-04T08:32:03.367Z,29.27
2018-08-04T08:36:59.500Z,29.47
2018-08-04T08:41:55.986Z,30.39
2018-08-04T08:46:52.328Z,29.59
2018-08-04T08:51:48.272Z,29.65
2018-08-04T08:56:43.361Z,29.05
2018-08-04T09:01:37.087Z,29.17
2018-08-04T09:06:33.589Z,29.24
2018-08-04T09:11:28.241Z,29.13
2018-08-04T09:16:23.661Z,29.27
2018-08-04T09:21:19.668Z,28.75
2018-08-04T09:26:17.885Z,29.34
2018-08-04T09:31:15.374Z,29.34
2018-08-04T09:36:12.502Z,30.18
2018-08-04T09:41:09.640Z,30.63
2018-08-04T09:46:06.814Z,31.42
2018-08-04T09:51:03.671Z,30.62
2018-08-04T09:56:00.662Z,30.53
2018-08-04T10:00:56.799Z,31.02
2018-08-04T10:05:54.261Z,31.55
2018-08-04T10:10:50.591Z,30.88
2018-08-04T10:15:46.536Z,31.10
2018-08-04T10:20:44.133Z,31.70
2018-08-04T10:25:40.405Z,31.17
2018-08-04T10:30:36.538Z,31.39
2018-08-04T10:35:33.154Z,32.00
2018-08-04T10:40:29.809Z,31.89
2018-08-04T10:45:26.238Z,31.78
2018-08-04T10:50:22.039Z,30.81
2018-08-04T10:55:18.019Z,30.97
2018-08-04T11:00:14.140Z,31.69
2018-08-04T11:05:10.944Z,32.52
2018-08-04T11:10:07.773Z,31.84
2018-08-04T11:15:03.774Z,31.47
2018-08-04T11:20:00.089Z,31.85
2018-08-04T11:24:56.601Z,32.07
2018-08-04T11:29:53.164Z,31.93
2018-08-04T11:34:49.294Z,32.45
2018-08-04T11:39:47.061Z,33.07
2018-08-04T11:44:47.119Z,33.14
2018-08-04T11:49:42.910Z,33.14
2018-08-04T11:54:39.646Z,33.23
2018-08-04T11:59:36.923Z,32.93
2018-08-04T12:04:31.925Z,33.11
2018-08-04T12:09:28.499Z,33.09
2018-08-04T12:14:24.293Z,32.80
2018-08-04T12:19:20.701Z,33.55
2018-08-04T12:24:17.401Z,33.83
2018-08-04T12:29:13.368Z,33.39
2018-08-04T12:34:09.152Z,33.19
2018-08-04T12:39:05.248Z,33.46
2018-08-04T12:44:00.566Z,32.53
2018-08-04T12:48:56.187Z,32.63
2018-08-04T12:53:48.924Z,32.77
2018-08-04T12:58:44.262Z,32.48
2018-08-04T13:03:41.385Z,32.51
2018-08-04T13:08:38.923Z,32.95
2018-08-04T13:13:35.301Z,33.40
2018-08-04T13:18:31.625Z,33.83
2018-08-04T13:23:28.083Z,33.96
2018-08-04T13:28:24.832Z,33.61
2018-08-04T13:33:20.506Z,33.55
2018-08-04T13:38:16.302Z,33.04
2018-08-04T13:43:11.659Z,33.36
2018-08-04T13:48:08.532Z,33.42
2018-08-04T13:53:04.230Z,33.46
2018-08-04T13:57:59.936Z,33.45
2018-08-04T14:02:56.382Z,32.89
2018-08-04T14:07:52.096Z,32.55
2018-08-04T14:12:48.825Z,32.49
2018-08-04T14:17:44.233Z,32.29
2018-08-04T14:22:39.583Z,32.16
2018-08-04T14:27:36.523Z,31.90
2018-08-04T14:32:33.504Z,31.78
2018-08-04T14:37:30.183Z,31.92
2018-08-04T14:42:25.812Z,31.89
2018-08-04T14:47:22.762Z,31.66
2018-08-04T14:52:19.206Z,31.54
2018-08-04T14:57:15.894Z,31.36
2018-08-04T15:02:11.370Z,31.25
2018-08-04T15:07:08.298Z,31.15
2018-08-04T15:12:03.753Z,31.03
2018-08-04T15:17:00.767Z,31.00
2018-08-04T15:21:56.444Z,31.05
2018-08-04T15:26:52.617Z,31.22
2018-08-04T15:31:48.778Z,31.27
2018-08-04T15:36:44.791Z,31.27
2018-08-04T15:41:41.066Z,31.33
2018-08-04T15:46:37.261Z,31.07
2018-08-04T15:51:33.271Z,31.02
2018-08-04T15:56:29.559Z,31.22
2018-08-04T16:01:25.745Z,31.31
2018-08-04T16:06:22.911Z,31.42
2018-08-04T16:11:18.742Z,31.25
2018-08-04T16:16:14.749Z,31.20
2018-08-04T16:21:10.951Z,31.14
2018-08-04T16:26:07.089Z,31.05
2018-08-04T16:31:04.061Z,30.96
2018-08-04T16:35:59.956Z,30.80
2018-08-04T16:40:56.822Z,30.77
2018-08-04T16:45:52.509Z,30.72
2018-08-04T16:50:49.468Z,30.51
2018-08-04T16:55:46.155Z,30.39
2018-08-04T17:00:42.089Z,30.25
2018-08-04T17:05:38.139Z,30.03
2018-08-04T17:10:34.122Z,29.91
2018-08-04T17:15:29.902Z,29.88
2018-08-04T17:20:26.866Z,29.84
2018-08-04T17:25:22.630Z,29.78
2018-08-04T17:30:18.720Z,29.66
2018-08-04T17:35:14.603Z,29.57
2018-08-04T17:40:10.376Z,29.45
2018-08-04T17:45:06.211Z,29.36
2018-08-04T17:50:02.199Z,29.31
2018-08-04T17:54:58.118Z,29.12
2018-08-04T17:59:54.137Z,28.97
2018-08-04T18:04:50.067Z,28.85
2018-08-04T18:09:46.161Z,28.76
2018-08-04T18:14:42.201Z,28.63
2018-08-04T18:19:37.921Z,28.56
2018-08-04T18:24:33.689Z,28.38
2018-08-04T18:29:29.600Z,28.19
2018-08-04T18:34:25.427Z,28.10
2018-08-04T18:39:22.307Z,27.95
2018-08-04T18:44:17.936Z,27.83
2018-08-04T18:49:14.070Z,27.67
2018-08-04T18:54:11.284Z,27.47
2018-08-04T18:59:06.915Z,27.26
2018-08-04T19:04:03.314Z,27.27
2018-08-04T19:08:59.860Z,27.00
2018-08-04T19:13:56.732Z,27.00
2018-08-04T19:18:52.293Z,26.75
2018-08-04T19:23:49.087Z,26.88
2018-08-04T19:28:45.814Z,26.66
2018-08-04T19:33:41.571Z,26.59
2018-08-04T19:38:37.482Z,26.37
2018-08-04T19:43:34.266Z,26.13
2018-08-04T19:48:31.498Z,26.02
2018-08-04T19:53:26.806Z,25.85
2018-08-04T19:58:24.220Z,25.63
2018-08-04T20:03:19.829Z,25.66
2018-08-04T20:08:15.779Z,25.51
2018-08-04T20:13:11.598Z,25.41
2018-08-04T20:18:08.429Z,25.38
2018-08-04T20:23:04.950Z,25.35
2018-08-04T20:28:00.876Z,25.22
2018-08-04T20:32:56.900Z,25.01
2018-08-04T20:37:52.846Z,25.04
2018-08-04T20:42:49.749Z,24.80
2018-08-04T20:47:46.077Z,24.74
2018-08-04T20:52:42.000Z,24.61
2018-08-04T20:57:38.208Z,24.51
2018-08-04T21:02:33.935Z,24.24
2018-08-04T21:07:29.750Z,24.03
2018-08-04T21:12:25.561Z,23.88
2018-08-04T21:17:21.350Z,23.69
2018-08-04T21:22:17.395Z,23.80
2018-08-04T21:27:13.192Z,23.73
2018-08-04T21:32:09.249Z,23.73
2018-08-04T21:37:05.460Z,23.71
2018-08-04T21:42:02.492Z,23.74
2018-08-04T21:46:58.820Z,23.66
2018-08-04T21:51:55.185Z,23.65
2018-08-04T21:56:50.878Z,23.48
2018-08-04T22:01:46.746Z,23.69
2018-08-04T22:06:43.776Z,23.46
2018-08-04T22:11:39.435Z,23.44
2018-08-04T22:16:36.260Z,23.28
2018-08-04T22:21:33.334Z,23.24
2018-08-04T22:26:29.023Z,23.48
2018-08-04T22:31:25.298Z,23.39
2018-08-04T22:36:21.922Z,23.31
2018-08-04T22:41:17.953Z,23.21
2018-08-04T22:46:13.719Z,23.12
2018-08-04T22:51:09.828Z,22.96
2018-08-04T22:56:05.811Z,22.96
2018-08-04T23:01:02.074Z,22.87
2018-08-04T23:05:57.844Z,22.73
2018-08-04T23:10:55.192Z,22.70
2018-08-04T23:15:50.570Z,22.50
2018-08-04T23:20:46.282Z,22.57
2018-08-04T23:25:42.312Z,22.57
2018-08-04T23:30:38.520Z,22.60
2018-08-04T23:35:34.534Z,22.54
2018-08-04T23:40:30.399Z,22.59
2018-08-04T23:45:26.819Z,22.73
2018-08-04T23:50:22.764Z,22.60
2018-08-04T23:55:18.515Z,22.47
